createdAt,value
2018-04-08T00:01:37.336Z,10.50
2018-04-08T00:04:05.868Z,10.50
2018-04-08T00:06:34.142Z,10.30
2018-04-08T00:09:02.336Z,10.30
2018-04-08T00:11:30.537Z,10.40
2018-04-08T00:13:58.784Z,10.30
2018-04-08T00:16:27.145Z,10.10
2018-04-08T00:18:55.347Z,10.00
2018-04-08T00:21:23.549Z,9.80
2018-04-08T00:23:51.735Z,9.80
2018-04-08T00:26:19.956Z,9.80
2018-04-08T00:28:48.172Z,9.80
2018-04-08T00:31:16.388Z,9.70
2018-04-08T00:33:45.381Z,9.70
2018-04-08T00:36:13.611Z,9.60
2018-04-08T00:38:41.830Z,9.50
2018-04-08T00:41:10.797Z,9.20
2018-04-08T00:43:39.022Z,9.20
2018-04-08T00:46:07.980Z,9.00
2018-04-08T00:48:36.937Z,8.80
2018-04-08T00:51:05.248Z,8.80
2018-04-08T00:53:34.205Z,8.80
2018-04-08T00:56:02.396Z,8.80
2018-04-08T00:58:30.636Z,8.80
2018-04-08T01:00:58.898Z,8.70
2018-04-08T01:03:27.085Z,8.80
2018-04-08T01:05:56.524Z,8.70
2018-04-08T01:08:24.719Z,8.70
2018-04-08T01:10:53.718Z,8.60
2018-04-08T01:13:23.600Z,8.50
2018-04-08T01:15:51.828Z,8.50
2018-04-08T01:18:20.028Z,8.40
2018-04-08T01:20:48.560Z,8.50
2018-04-08T01:23:17.520Z,8.40
2018-04-08T01:25:46.544Z,8.20
2018-04-08T01:28:15.760Z,8.20
2018-04-08T01:30:43.968Z,8.10
2018-04-08T01:33:12.180Z,8.30
2018-04-08T01:35:40.416Z,8.30
2018-04-08T01:38:08.952Z,8.30
2018-04-08T01:40:38.291Z,8.20
2018-04-08T01:43:06.569Z,8.20
2018-04-08T01:45:34.780Z,8.20
2018-04-08T01:48:02.978Z,8.10
2018-04-08T01:50:31.960Z,7.80
2018-04-08T01:53:00.166Z,7.80
2018-04-08T01:55:28.371Z,7.80
2018-04-08T01:57:56.785Z,7.90
2018-04-08T02:00:24.989Z,8.00
2018-04-08T02:02:53.177Z,8.10
2018-04-08T02:05:21.416Z,8.10
2018-04-08T02:07:49.730Z,8.10
2018-04-08T02:10:17.961Z,8.10
2018-04-08T02:12:46.196Z,8.20
2018-04-08T02:15:14.388Z,8.20
2018-04-08T02:17:42.605Z,8.30
2018-04-08T02:20:11.677Z,8.30
2018-04-08T02:22:39.870Z,8.30
2018-04-08T02:25:08.068Z,8.30
2018-04-08T02:27:36.332Z,8.20
2018-04-08T02:30:05.319Z,7.70
2018-04-08T02:32:33.501Z,7.70
2018-04-08T02:35:02.486Z,7.60
2018-04-08T02:37:31.484Z,7.60
2018-04-08T02:40:00.444Z,7.50
2018-04-08T02:42:28.673Z,7.50
2018-04-08T02:44:56.854Z,7.40
2018-04-08T02:47:25.105Z,7.40
2018-04-08T02:49:54.164Z,7.20
2018-04-08T02:52:22.364Z,7.20
2018-04-08T02:54:51.331Z,7.10
2018-04-08T02:57:19.553Z,7.10
2018-04-08T02:59:47.745Z,7.20
2018-04-08T03:02:15.948Z,7.30
2018-04-08T03:04:44.229Z,7.30
2018-04-08T03:07:12.425Z,7.30
2018-04-08T03:09:42.660Z,6.90
2018-04-08T03:12:11.669Z,6.90
2018-04-08T03:14:39.924Z,6.90
2018-04-08T03:17:08.904Z,6.70
2018-04-08T03:19:37.148Z,6.70
2018-04-08T03:22:05.357Z,6.70
2018-04-08T03:24:33.564Z,6.70
2018-04-08T03:27:01.880Z,6.70
2018-04-08T03:29:30.100Z,6.80
2018-04-08T03:31:58.280Z,6.90
2018-04-08T03:34:27.272Z,7.10
2018-04-08T03:36:56.237Z,7.10
2018-04-08T03:39:24.432Z,7.10
2018-04-08T03:41:53.415Z,7.20
2018-04-08T03:44:21.653Z,7.20
2018-04-08T03:46:49.844Z,7.30
2018-04-08T03:49:18.116Z,7.30
2018-04-08T03:51:46.316Z,7.20
2018-04-08T03:54:14.521Z,7.10
2018-04-08T03:56:42.733Z,7.00
2018-04-08T03:59:10.933Z,6.90
2018-04-08T04:01:39.176Z,6.90
2018-04-08T04:04:07.413Z,6.80
2018-04-08T04:06:36.404Z,6.70
2018-04-08T04:09:06.073Z,6.70
2018-04-08T04:11:34.424Z,6.70
2018-04-08T04:14:02.612Z,6.70
2018-04-08T04:16:30.852Z,6.70
2018-04-08T04:19:10.788Z,6.60
2018-04-08T04:22:01.394Z,6.60
2018-04-08T04:24:42.041Z,6.50
2018-04-08T04:27:10.285Z,6.50
2018-04-08T04:29:38.468Z,6.50
2018-04-08T04:32:06.736Z,6.40
2018-04-08T04:34:34.925Z,6.50
2018-04-08T04:37:03.125Z,6.40
2018-04-08T04:39:32.105Z,6.30
2018-04-08T04:42:00.369Z,6.30
2018-04-08T04:44:28.577Z,6.30
2018-04-08T04:46:57.564Z,6.30
2018-04-08T04:49:26.592Z,6.10
2018-04-08T04:51:54.785Z,6.10
2018-04-08T04:54:23.110Z,6.10
2018-04-08T04:56:52.108Z,6.10
2018-04-08T04:59:21.140Z,6.10
2018-04-08T05:01:49.340Z,6.10
2018-04-08T05:04:17.605Z,6.20
2018-04-08T05:06:45.792Z,6.10
2018-04-08T05:09:14.012Z,6.20
2018-04-08T05:11:44.288Z,6.20
2018-04-08T05:14:12.480Z,6.30
2018-04-08T05:16:40.757Z,6.30
2018-04-08T05:19:09.020Z,6.30
2018-04-08T05:21:37.244Z,6.40
2018-04-08T05:24:05.458Z,6.50
2018-04-08T05:26:33.673Z,6.90
2018-04-08T05:29:02.636Z,7.90
2018-04-08T05:31:30.864Z,7.90
2018-04-08T05:33:59.048Z,8.20
2018-04-08T05:36:27.273Z,8.40
2018-04-08T05:38:55.605Z,8.50
2018-04-08T05:41:23.877Z,8.60
2018-04-08T05:43:52.129Z,8.70
2018-04-08T05:46:21.108Z,8.90
2018-04-08T05:48:49.361Z,8.90
2018-04-08T05:51:17.578Z,9.00
2018-04-08T05:53:45.780Z,9.10
2018-04-08T05:56:13.968Z,9.20
2018-04-08T05:58:42.168Z,9.20
2018-04-08T06:01:10.465Z,9.40
2018-04-08T06:03:39.464Z,9.50
2018-04-08T06:06:08.469Z,9.50
2018-04-08T06:08:36.690Z,9.50
2018-04-08T06:11:04.945Z,9.60
2018-04-08T06:13:33.390Z,9.60
2018-04-08T06:16:02.378Z,9.50
2018-04-08T06:18:31.390Z,9.60
2018-04-08T06:20:59.581Z,9.60
2018-04-08T06:23:27.910Z,9.70
2018-04-08T06:25:56.128Z,9.60
2018-04-08T06:28:24.326Z,9.70
2018-04-08T06:30:52.600Z,9.70
2018-04-08T06:33:20.805Z,9.70
2018-04-08T06:35:49.089Z,9.60
2018-04-08T06:38:17.318Z,9.60
2018-04-08T06:40:45.521Z,9.80
2018-04-08T06:43:13.774Z,9.80
2018-04-08T06:45:42.055Z,9.80
2018-04-08T06:48:10.314Z,9.90
2018-04-08T06:50:38.508Z,9.90
2018-04-08T06:53:06.777Z,9.90
2018-04-08T06:55:35.006Z,9.90
2018-04-08T06:58:03.969Z,10.00
2018-04-08T07:00:32.209Z,10.00
2018-04-08T07:03:00.428Z,10.20
2018-04-08T07:05:28.710Z,10.10
2018-04-08T07:07:57.056Z,10.30
2018-04-08T07:10:25.317Z,10.50
2018-04-08T07:12:53.576Z,10.60
2018-04-08T07:15:22.018Z,10.60
2018-04-08T07:17:50.269Z,10.50
2018-04-08T07:20:18.470Z,10.60
2018-04-08T07:22:46.763Z,10.90
2018-04-08T07:25:15.833Z,11.10
2018-04-08T07:27:44.061Z,11.10
2018-04-08T07:30:12.366Z,11.20
2018-04-08T07:32:40.629Z,11.30
2018-04-08T07:35:08.772Z,11.20
2018-04-08T07:37:37.768Z,11.40
2018-04-08T07:40:06.084Z,11.40
2018-04-08T07:42:34.358Z,11.60
2018-04-08T07:45:02.613Z,11.60
2018-04-08T07:47:30.866Z,11.90
2018-04-08T07:49:59.111Z,11.60
2018-04-08T07:52:27.297Z,11.50
2018-04-08T07:54:55.528Z,12.50
2018-04-08T07:57:23.789Z,13.00
2018-04-08T07:59:52.054Z,13.30
2018-04-08T08:02:21.012Z,14.70
2018-04-08T08:04:49.214Z,14.70
2018-04-08T08:07:18.232Z,14.90
2018-04-08T08:09:46.453Z,14.80
2018-04-08T08:12:14.818Z,15.50
2018-04-08T08:14:43.153Z,16.00
2018-04-08T08:17:12.639Z,17.30
2018-04-08T08:19:41.685Z,18.40
2018-04-08T08:22:09.924Z,18.40
2018-04-08T08:24:38.117Z,18.70
2018-04-08T08:27:06.426Z,18.50
2018-04-08T08:29:34.757Z,18.00
2018-04-08T08:32:03.077Z,16.50
2018-04-08T08:34:31.301Z,16.10
2018-04-08T08:37:00.645Z,14.80
2018-04-08T08:39:28.840Z,14.80
2018-04-08T08:41:57.165Z,15.10
2018-04-08T08:44:25.385Z,14.90
2018-04-08T08:46:53.582Z,15.20
2018-04-08T08:49:22.637Z,14.60
2018-04-08T08:51:50.953Z,14.50
2018-04-08T08:54:19.917Z,14.90
2018-04-08T08:56:48.165Z,14.90
2018-04-08T08:59:16.464Z,14.90
2018-04-08T09:01:44.665Z,15.00
2018-04-08T09:04:16.572Z,14.80
2018-04-08T09:06:45.033Z,14.80
2018-04-08T09:09:13.164Z,15.20
2018-04-08T09:11:41.469Z,14.70
2018-04-08T09:14:10.497Z,14.90
2018-04-08T09:16:38.712Z,14.80
2018-04-08T09:19:26.693Z,15.00
2018-04-08T09:22:01.360Z,14.90
2018-04-08T09:24:34.504Z,14.90
2018-04-08T09:27:03.491Z,14.90
2018-04-08T09:29:32.480Z,14.80
2018-04-08T09:32:01.541Z,15.10
2018-04-08T09:34:29.745Z,15.10
2018-04-08T09:36:58.014Z,15.30
2018-04-08T09:39:26.283Z,15.10
2018-04-08T09:41:54.636Z,15.70
2018-04-08T09:44:22.833Z,16.50
2018-04-08T09:46:51.064Z,17.70
2018-04-08T09:49:19.285Z,17.40
2018-04-08T09:51:47.489Z,17.70
2018-04-08T09:54:16.528Z,18.90
2018-04-08T09:56:44.724Z,18.80
2018-04-08T09:59:12.930Z,19.30
2018-04-08T10:01:47.673Z,19.50
2018-04-08T10:04:15.885Z,19.50
2018-04-08T10:06:44.134Z,19.80
2018-04-08T10:09:12.368Z,19.40
2018-04-08T10:11:40.601Z,19.30
2018-04-08T10:14:08.822Z,18.50
2018-04-08T10:16:37.047Z,19.00
2018-04-08T10:19:05.258Z,18.50
2018-04-08T10:21:34.997Z,19.20
2018-04-08T10:24:03.325Z,19.50
2018-04-08T10:26:31.600Z,19.50
2018-04-08T10:28:59.813Z,20.20
2018-04-08T10:31:28.021Z,21.00
2018-04-08T10:33:56.244Z,22.10
2018-04-08T10:36:24.457Z,22.60
2018-04-08T10:38:53.449Z,21.50
2018-04-08T10:41:22.424Z,21.60
2018-04-08T10:43:50.624Z,21.60
2018-04-08T10:46:18.913Z,21.70
2018-04-08T10:48:47.106Z,21.70
2018-04-08T10:51:15.317Z,21.20
2018-04-08T10:53:43.555Z,21.10
2018-04-08T10:56:11.769Z,20.70
2018-04-08T10:58:39.968Z,22.00
2018-04-08T11:01:09.251Z,23.20
2018-04-08T11:03:38.290Z,23.20
2018-04-08T11:06:06.606Z,22.20
2018-04-08T11:08:34.934Z,22.00
2018-04-08T11:11:03.176Z,23.10
2018-04-08T11:13:31.393Z,24.00
2018-04-08T11:15:59.628Z,24.10
2018-04-08T11:18:27.840Z,22.30
2018-04-08T11:20:56.090Z,23.60
2018-04-08T11:23:24.884Z,24.10
2018-04-08T11:25:53.848Z,22.80
2018-04-08T11:28:22.120Z,22.70
2018-04-08T11:30:50.405Z,23.60
2018-04-08T11:33:18.666Z,24.30
2018-04-08T11:35:46.929Z,23.80
2018-04-08T11:38:15.169Z,22.10
2018-04-08T11:40:43.430Z,20.80
2018-04-08T11:43:12.540Z,20.60
2018-04-08T11:45:40.828Z,20.60
2018-04-08T11:48:09.132Z,20.70
2018-04-08T11:50:37.451Z,20.70
2018-04-08T11:53:08.159Z,21.70
2018-04-08T11:55:36.524Z,22.60
2018-04-08T11:58:04.763Z,24.20
2018-04-08T12:00:33.873Z,24.20
2018-04-08T12:03:02.074Z,24.10
2018-04-08T12:05:30.292Z,25.10
2018-04-08T12:07:59.261Z,25.50
2018-04-08T12:10:27.469Z,25.50
2018-04-08T12:12:56.438Z,25.10
2018-04-08T12:15:24.711Z,25.10
2018-04-08T12:17:53.029Z,24.40
2018-04-08T12:20:21.229Z,25.40
2018-04-08T12:22:49.510Z,25.40
2018-04-08T12:25:18.441Z,26.00
2018-04-08T12:27:47.420Z,25.30
2018-04-08T12:30:15.672Z,25.30
2018-04-08T12:32:43.866Z,23.60
2018-04-08T12:35:12.100Z,25.00
2018-04-08T12:37:40.504Z,24.80
2018-04-08T12:40:08.718Z,25.20
2018-04-08T12:42:37.844Z,23.00
2018-04-08T12:45:06.138Z,23.00
2018-04-08T12:47:34.504Z,24.10
2018-04-08T12:50:02.796Z,24.50
2018-04-08T12:52:32.365Z,24.90
2018-04-08T12:55:00.842Z,25.50
2018-04-08T12:57:29.008Z,25.90
2018-04-08T12:59:57.417Z,26.50
2018-04-08T13:02:25.609Z,25.50
2018-04-08T13:04:53.802Z,25.40
2018-04-08T13:07:22.039Z,24.00
2018-04-08T13:09:50.244Z,24.50
2018-04-08T13:12:18.453Z,24.00
2018-04-08T13:14:46.716Z,23.90
2018-04-08T13:17:14.912Z,24.70
2018-04-08T13:19:43.112Z,25.50
2018-04-08T13:22:12.310Z,26.50
2018-04-08T13:24:41.264Z,26.90
2018-04-08T13:27:09.462Z,26.80
2018-04-08T13:29:37.825Z,27.00
2018-04-08T13:32:06.061Z,27.40
2018-04-08T13:34:34.264Z,26.90
2018-04-08T13:37:02.495Z,28.20
2018-04-08T13:39:31.461Z,28.20
2018-04-08T13:41:59.680Z,28.10
2018-04-08T13:44:28.043Z,25.90
2018-04-08T13:46:57.036Z,28.90
2018-04-08T13:49:25.256Z,28.80
2018-04-08T13:51:53.548Z,27.30
2018-04-08T13:54:21.781Z,26.40
2018-04-08T13:56:49.974Z,28.20
2018-04-08T13:59:18.261Z,27.30
2018-04-08T14:01:46.458Z,27.90
2018-04-08T14:04:14.644Z,26.90
2018-04-08T14:06:42.866Z,26.10
2018-04-08T14:09:11.065Z,27.60
2018-04-08T14:11:40.097Z,30.30
2018-04-08T14:15:00.370Z,30.30
2018-04-08T14:17:29.614Z,30.20
2018-04-08T14:19:58.069Z,31.90
2018-04-08T14:22:26.256Z,31.30
2018-04-08T14:24:54.587Z,31.60
2018-04-08T14:27:22.949Z,31.70
2018-04-08T14:29:51.688Z,31.30
2018-04-08T14:32:20.667Z,31.10
2018-04-08T14:34:51.458Z,31.00
2018-04-08T14:37:19.769Z,30.50
2018-04-08T14:39:48.056Z,30.60
2018-04-08T14:42:17.077Z,29.10
2018-04-08T14:44:45.344Z,29.00
2018-04-08T14:47:13.562Z,28.30
2018-04-08T14:49:41.942Z,28.40
2018-04-08T14:52:10.248Z,27.80
2018-04-08T14:54:39.328Z,26.00
2018-04-08T14:57:07.721Z,26.00
2018-04-08T14:59:35.914Z,25.10
2018-04-08T15:02:04.169Z,26.00
2018-04-08T15:04:32.440Z,25.80
2018-04-08T15:07:00.730Z,25.00
2018-04-08T15:09:29.007Z,24.90
2018-04-08T15:11:57.326Z,24.70
2018-04-08T15:14:25.532Z,24.30
2018-04-08T15:16:53.749Z,24.00
2018-04-08T15:19:22.733Z,23.90
2018-04-08T15:21:51.802Z,22.70
2018-04-08T15:24:20.105Z,22.60
2018-04-08T15:26:49.161Z,22.40
2018-04-08T15:29:17.393Z,22.30
2018-04-08T15:31:45.669Z,22.30
2018-04-08T15:34:14.045Z,22.20
2018-04-08T15:36:42.277Z,22.00
2018-04-08T15:39:10.517Z,22.20
2018-04-08T15:41:39.064Z,22.30
2018-04-08T15:44:07.611Z,22.40
2018-04-08T15:46:36.161Z,22.90
2018-04-08T15:49:04.524Z,23.00
2018-04-08T15:51:34.519Z,22.00
2018-04-08T15:54:02.863Z,22.00
2018-04-08T15:56:31.518Z,21.10
2018-04-08T15:59:00.605Z,20.30
2018-04-08T16:01:29.103Z,20.30
2018-04-08T16:03:57.388Z,19.80
2018-04-08T16:06:25.739Z,19.50
2018-04-08T16:08:53.946Z,19.40
2018-04-08T16:11:22.269Z,19.30
2018-04-08T16:13:50.553Z,19.30
2018-04-08T16:16:18.980Z,19.00
2018-04-08T16:18:48.550Z,19.20
2018-04-08T16:21:16.902Z,18.90
2018-04-08T16:23:46.004Z,18.90
2018-04-08T16:26:15.044Z,18.50
2018-04-08T16:28:43.640Z,18.50
2018-04-08T16:31:11.982Z,18.50
2018-04-08T16:33:40.582Z,18.60
2018-04-08T16:36:09.844Z,18.40
2018-04-08T16:38:39.092Z,18.30
2018-04-08T16:41:08.346Z,18.30
2018-04-08T16:43:36.608Z,18.40
2018-04-08T16:46:04.892Z,18.20
2018-04-08T16:48:34.289Z,18.10
2018-04-08T16:51:04.459Z,18.00
2018-04-08T16:53:32.717Z,17.90
2018-04-08T16:56:01.101Z,18.00
2018-04-08T16:58:29.421Z,17.90
2018-04-08T17:00:57.665Z,17.60
2018-04-08T17:03:26.401Z,17.50
2018-04-08T17:05:54.725Z,17.40
2018-04-08T17:08:22.958Z,17.40
2018-04-08T17:10:51.259Z,17.30
2018-04-08T17:13:20.303Z,17.10
2018-04-08T17:15:48.616Z,17.10
2018-04-08T17:18:17.664Z,16.90
2018-04-08T17:20:45.888Z,16.90
2018-04-08T17:23:14.926Z,16.90
2018-04-08T17:25:43.596Z,16.80
2018-04-08T17:28:11.812Z,16.90
2018-04-08T17:30:40.243Z,17.00
2018-04-08T17:33:08.665Z,16.90
2018-04-08T17:35:36.875Z,16.90
2018-04-08T17:38:05.133Z,16.70
2018-04-08T17:40:33.359Z,16.70
2018-04-08T17:43:01.651Z,16.70
2018-04-08T17:45:29.941Z,16.50
2018-04-08T17:47:58.248Z,16.30
2018-04-08T17:50:27.239Z,16.30
2018-04-08T17:52:55.467Z,16.30
2018-04-08T17:55:23.829Z,16.30
2018-04-08T17:57:52.123Z,16.20
2018-04-08T18:00:20.428Z,16.30
2018-04-08T18:02:48.679Z,16.10
2018-04-08T18:05:16.881Z,16.00
2018-04-08T18:07:45.137Z,15.90
2018-04-08T18:10:13.521Z,15.80
2018-04-08T18:12:41.924Z,15.80
2018-04-08T18:15:10.382Z,15.60
2018-04-08T18:17:38.904Z,15.50
2018-04-08T18:20:07.941Z,15.30
2018-04-08T18:22:36.241Z,15.30
2018-04-08T18:25:05.074Z,15.30
2018-04-08T18:27:34.761Z,15.10
2018-04-08T18:30:02.996Z,15.10
2018-04-08T18:32:31.289Z,15.10
2018-04-08T18:34:59.892Z,15.00
2018-04-08T18:37:28.144Z,14.90
2018-04-08T18:39:56.423Z,14.90
2018-04-08T18:42:24.705Z,14.80
2018-04-08T18:44:53.016Z,14.90
2018-04-08T18:47:22.160Z,14.60
2018-04-08T18:49:50.462Z,14.60
2018-04-08T18:52:18.748Z,14.60
2018-04-08T18:54:47.113Z,14.40
2018-04-08T18:57:15.368Z,14.40
2018-04-08T18:59:43.701Z,14.40
2018-04-08T19:02:12.713Z,14.20
2018-04-08T19:04:40.989Z,14.20
2018-04-08T19:07:09.234Z,14.20
2018-04-08T19:09:37.560Z,14.20
2018-04-08T19:12:05.806Z,14.30
2018-04-08T19:14:40.789Z,14.20
2018-04-08T19:17:09.310Z,14.20
2018-04-08T19:19:37.580Z,14.10
2018-04-08T19:22:05.885Z,14.00
2018-04-08T19:24:35.030Z,14.00
2018-04-08T19:27:04.615Z,14.00
2018-04-08T19:29:32.981Z,13.90
2018-04-08T19:32:01.381Z,13.90
2018-04-08T19:34:32.409Z,13.90
2018-04-08T19:37:01.014Z,13.90
2018-04-08T19:39:29.417Z,13.80
2018-04-08T19:42:02.470Z,13.80
2018-04-08T19:44:30.905Z,13.70
2018-04-08T19:47:01.765Z,13.50
2018-04-08T19:49:31.170Z,13.30
2018-04-08T19:52:06.618Z,13.30
2018-04-08T19:54:35.624Z,13.30
2018-04-08T19:57:04.104Z,13.30
2018-04-08T19:59:32.727Z,13.30
2018-04-08T20:02:01.271Z,13.20
2018-04-08T20:04:30.562Z,13.00
2018-04-08T20:06:58.930Z,13.00
2018-04-08T20:09:27.224Z,12.90
2018-04-08T20:11:55.606Z,12.90
2018-04-08T20:14:24.282Z,12.80
2018-04-08T20:16:52.533Z,12.80
2018-04-08T20:19:21.640Z,12.70
2018-04-08T20:21:50.272Z,12.70
2018-04-08T20:24:18.613Z,12.60
2018-04-08T20:26:46.912Z,12.60
2018-04-08T20:29:16.437Z,12.50
2018-04-08T20:31:44.673Z,12.50
2018-04-08T20:34:12.889Z,12.50
2018-04-08T20:36:41.563Z,12.40
2018-04-08T20:39:09.937Z,12.30
2018-04-08T20:41:38.213Z,12.30
2018-04-08T20:44:06.620Z,12.20
2018-04-08T20:46:35.061Z,12.10
2018-04-08T20:49:03.297Z,12.10
2018-04-08T20:51:31.539Z,12.00
2018-04-08T20:53:59.952Z,11.90
2018-04-08T20:56:30.869Z,11.80
2018-04-08T20:58:59.217Z,11.70
2018-04-08T21:01:28.569Z,11.60
2018-04-08T21:04:01.281Z,11.60
2018-04-08T21:06:29.908Z,11.60
2018-04-08T21:08:58.372Z,11.50
2018-04-08T21:11:27.125Z,11.60
2018-04-08T21:13:56.125Z,11.50
2018-04-08T21:16:25.960Z,11.30
2018-04-08T21:18:55.096Z,11.20
2018-04-08T21:21:26.077Z,11.20
2018-04-08T21:23:54.761Z,11.20
2018-04-08T21:26:23.061Z,11.20
2018-04-08T21:28:51.483Z,11.20
2018-04-08T21:31:20.036Z,11.10
2018-04-08T21:33:48.478Z,11.10
2018-04-08T21:36:19.205Z,11.10
2018-04-08T21:38:47.603Z,11.00
2018-04-08T21:41:16.742Z,11.00
2018-04-08T21:43:45.254Z,10.90
2018-04-08T21:46:13.461Z,10.90
2018-04-08T21:48:41.705Z,10.80
2018-04-08T21:51:10.069Z,10.80
2018-04-08T21:53:38.284Z,10.70
2018-04-08T21:56:06.596Z,10.70
2018-04-08T21:58:34.990Z,10.70
2018-04-08T22:01:03.295Z,10.70
2018-04-08T22:03:31.693Z,10.60
2018-04-08T22:06:00.272Z,10.60
2018-04-08T22:08:29.304Z,10.50
2018-04-08T22:10:57.747Z,10.50
2018-04-08T22:13:26.202Z,10.50
2018-04-08T22:15:54.936Z,10.40
2018-04-08T22:18:23.246Z,10.40
2018-04-08T22:20:51.697Z,10.30
2018-04-08T22:23:20.681Z,10.30
2018-04-08T22:25:49.241Z,10.20
2018-04-08T22:28:17.602Z,10.10
2018-04-08T22:30:46.043Z,10.10
2018-04-08T22:33:14.649Z,10.00
2018-04-08T22:35:43.006Z,10.00
2018-04-08T22:38:11.393Z,9.90
2018-04-08T22:40:40.073Z,9.90
2018-04-08T22:43:08.513Z,9.90
2018-04-08T22:45:36.762Z,9.90
2018-04-08T22:48:05.159Z,9.90
2018-04-08T22:50:35.821Z,9.90
2018-04-08T22:53:04.052Z,10.00
2018-04-08T22:55:32.380Z,10.00
2018-04-08T22:58:00.637Z,10.00
2018-04-08T23:00:28.928Z,9.90
2018-04-08T23:02:58.587Z,9.80
2018-04-08T23:05:27.034Z,9.70
2018-04-08T23:07:55.257Z,9.60
2018-04-08T23:10:23.538Z,9.60
2018-04-08T23:12:52.632Z,9.60
2018-04-08T23:15:21.082Z,9.60
2018-04-08T23:17:49.444Z,9.60
2018-04-08T23:20:17.786Z,9.50
2018-04-08T23:22:46.796Z,9.30
2018-04-08T23:25:15.260Z,9.30
2018-04-08T23:27:44.617Z,9.30
2018-04-08T23:30:14.351Z,9.30
2018-04-08T23:32:43.598Z,9.30
2018-04-08T23:35:21.250Z,9.30
2018-04-08T23:37:49.653Z,9.10
2018-04-08T23:40:17.886Z,9.10
2018-04-08T23:42:46.422Z,9.00
2018-04-08T23:45:15.773Z,8.90
2018-04-08T23:47:44.009Z,8.80
2018-04-08T23:50:12.487Z,8.70
2018-04-08T23:52:41.917Z,8.70
2018-04-08T23:55:10.520Z,8.60
2018-04-08T23:57:41.266Z,8.60
